createdAt,value
2022-12-08T00:01:36.162Z,7.70
2022-12-08T00:04:09.417Z,6.30
2022-12-08T00:07:01.343Z,6.78
2022-12-08T00:09:39.491Z,6.70
2022-12-08T00:12:15.125Z,6.88
2022-12-08T00:14:49.802Z,6.95
2022-12-08T00:17:22.583Z,5.30
2022-12-08T00:19:55.517Z,7.28
2022-12-08T00:22:29.114Z,8.00
2022-12-08T00:25:02.096Z,7.05
2022-12-08T00:27:35.245Z,7.93
2022-12-08T00:30:10.881Z,7.28
2022-12-08T00:32:43.690Z,8.02
2022-12-08T00:35:16.910Z,10.02
2022-12-08T00:37:49.726Z,9.05
2022-12-08T00:40:22.498Z,9.32
2022-12-08T00:42:55.318Z,10.93
2022-12-08T00:45:29.597Z,11.05
2022-12-08T00:48:02.459Z,10.40
2022-12-08T00:50:35.992Z,12.23
2022-12-08T00:53:08.808Z,8.82
2022-12-08T00:55:41.669Z,12.30
2022-12-08T00:58:14.753Z,13.50
2022-12-08T01:00:48.967Z,11.50
2022-12-08T01:03:21.937Z,14.07
2022-12-08T01:05:54.795Z,11.18
2022-12-08T01:08:27.723Z,15.60
2022-12-08T01:11:04.379Z,9.07
2022-12-08T01:13:37.429Z,10.98
2022-12-08T01:16:20.272Z,11.82
2022-12-08T01:18:53.254Z,11.68
2022-12-08T01:21:27.625Z,10.48
2022-12-08T01:24:01.272Z,11.52
2022-12-08T01:26:34.264Z,8.40
2022-12-08T01:31:43.845Z,7.90
2022-12-08T01:34:16.661Z,7.95
2022-12-08T01:36:49.589Z,12.30
2022-12-08T01:39:22.382Z,10.45
2022-12-08T01:41:55.197Z,11.02
2022-12-08T01:44:58.190Z,12.73
2022-12-08T01:47:38.656Z,14.90
2022-12-08T01:50:14.423Z,13.18
2022-12-08T01:52:51.812Z,9.68
2022-12-08T01:55:29.866Z,16.00
2022-12-08T01:58:07.135Z,13.98
2022-12-08T02:00:39.970Z,15.38
2022-12-08T02:03:18.749Z,15.15
2022-12-08T02:05:53.297Z,16.33
2022-12-08T02:08:27.834Z,16.00
2022-12-08T02:13:35.176Z,15.02
2022-12-08T02:16:13.800Z,9.18
2022-12-08T02:19:29.902Z,16.38
2022-12-08T02:22:02.170Z,16.55
2022-12-08T02:24:39.958Z,15.18
2022-12-08T02:27:37.806Z,14.07
2022-12-08T02:30:25.909Z,20.08
2022-12-08T02:33:28.740Z,17.30
2022-12-08T02:36:08.223Z,14.25
2022-12-08T02:38:49.655Z,16.55
2022-12-08T02:41:33.028Z,16.17
2022-12-08T02:44:13.260Z,17.02
2022-12-08T02:46:53.543Z,18.25
2022-12-08T02:49:29.500Z,15.43
2022-12-08T02:52:08.641Z,19.88
2022-12-08T02:54:43.053Z,16.67
2022-12-08T02:57:29.837Z,18.17
2022-12-08T03:00:09.771Z,17.80
2022-12-08T03:02:58.459Z,21.95
2022-12-08T03:05:46.642Z,17.70
2022-12-08T03:08:26.592Z,19.73
2022-12-08T03:11:04.456Z,18.00
2022-12-08T03:13:41.662Z,21.83
2022-12-08T03:16:20.943Z,21.10
2022-12-08T03:19:04.952Z,20.40
2022-12-08T03:21:40.310Z,19.33
2022-12-08T03:24:16.734Z,22.30
2022-12-08T03:26:52.834Z,14.57
2022-12-08T03:29:26.123Z,21.27
2022-12-08T03:32:04.473Z,18.77
2022-12-08T03:34:40.365Z,25.15
2022-12-08T03:37:13.578Z,19.90
2022-12-08T03:39:48.112Z,21.17
2022-12-08T03:42:22.032Z,21.63
2022-12-08T03:44:54.853Z,19.60
2022-12-08T03:47:27.736Z,22.70
2022-12-08T03:50:00.835Z,20.45
2022-12-08T03:52:33.707Z,18.55
2022-12-08T03:55:09.253Z,21.35
2022-12-08T03:57:42.353Z,21.73
2022-12-08T04:00:17.839Z,22.25
2022-12-08T04:02:51.119Z,25.42
2022-12-08T04:05:23.993Z,21.02
2022-12-08T04:07:58.104Z,22.92
2022-12-08T04:10:32.456Z,23.70
2022-12-08T04:13:05.302Z,21.92
2022-12-08T04:15:38.152Z,25.50
2022-12-08T04:18:11.046Z,21.45
2022-12-08T04:20:45.510Z,21.20
2022-12-08T04:23:18.323Z,24.23
2022-12-08T04:25:54.507Z,23.60
2022-12-08T04:28:29.308Z,19.27
2022-12-08T04:31:02.291Z,25.90
2022-12-08T04:33:36.307Z,22.90
2022-12-08T04:36:10.356Z,24.65
2022-12-08T04:38:43.170Z,22.40
2022-12-08T04:41:17.615Z,22.15
2022-12-08T04:43:50.443Z,24.05
2022-12-08T04:46:23.312Z,21.55
2022-12-08T04:48:56.178Z,24.60
2022-12-08T04:51:29.309Z,23.75
2022-12-08T04:54:02.114Z,21.73
2022-12-08T04:56:36.268Z,23.35
2022-12-08T04:59:09.312Z,20.00
2022-12-08T05:01:42.215Z,22.02
2022-12-08T05:04:15.198Z,19.65
2022-12-08T05:06:48.008Z,18.40
2022-12-08T05:09:20.811Z,20.02
2022-12-08T05:11:55.030Z,22.17
2022-12-08T05:14:27.919Z,19.10
2022-12-08T05:17:04.844Z,19.00
2022-12-08T05:19:40.665Z,19.73
2022-12-08T05:22:13.419Z,17.42
2022-12-08T05:24:47.857Z,18.65
2022-12-08T05:27:22.185Z,14.80
2022-12-08T05:29:55.088Z,18.95
2022-12-08T05:32:28.077Z,16.23
2022-12-08T05:35:00.829Z,15.45
2022-12-08T05:37:33.624Z,18.80
2022-12-08T05:40:07.961Z,18.52
2022-12-08T05:42:42.450Z,15.65
2022-12-08T05:45:15.511Z,15.93
2022-12-08T05:47:48.324Z,20.48
2022-12-08T05:50:21.101Z,16.42
2022-12-08T05:52:53.919Z,15.00
2022-12-08T05:55:26.729Z,18.30
2022-12-08T05:58:04.658Z,17.02
2022-12-08T06:00:40.960Z,18.42
2022-12-08T06:03:14.904Z,11.25
2022-12-08T06:05:48.234Z,16.47
2022-12-08T06:08:21.245Z,15.05
2022-12-08T06:10:54.195Z,15.77
2022-12-08T06:13:28.369Z,15.75
2022-12-08T06:16:05.226Z,14.70
2022-12-08T06:18:40.481Z,14.55
2022-12-08T06:21:14.969Z,14.50
2022-12-08T06:23:49.812Z,16.27
2022-12-08T06:28:57.043Z,13.60
2022-12-08T06:31:30.013Z,11.20
2022-12-08T06:34:04.935Z,12.18
2022-12-08T06:36:38.059Z,11.35
2022-12-08T06:39:10.921Z,14.07
2022-12-08T06:41:57.606Z,14.32
2022-12-08T06:44:31.826Z,13.13
2022-12-08T06:47:04.659Z,9.37
2022-12-08T06:49:37.466Z,10.75
2022-12-08T06:52:10.233Z,9.80
2022-12-08T06:54:43.098Z,10.45
2022-12-08T06:57:15.903Z,11.05
2022-12-08T06:59:50.051Z,9.07
2022-12-08T07:02:22.822Z,9.97
2022-12-08T07:04:55.654Z,8.65
2022-12-08T07:07:28.507Z,8.43
2022-12-08T07:10:01.341Z,6.72
2022-12-08T07:12:34.263Z,5.10
2022-12-08T07:15:10.021Z,8.05
2022-12-08T07:17:42.840Z,6.47
2022-12-08T07:20:15.823Z,7.07
2022-12-08T07:22:52.141Z,6.75
2022-12-08T07:25:25.027Z,7.13
2022-12-08T07:27:57.850Z,5.97
2022-12-08T07:30:32.002Z,6.80
2022-12-08T07:33:05.531Z,6.87
2022-12-08T07:35:38.315Z,6.60
2022-12-08T07:38:11.843Z,6.57
2022-12-08T07:40:44.636Z,8.70
2022-12-08T07:43:17.796Z,7.10
2022-12-08T07:45:52.317Z,7.65
2022-12-08T07:48:25.192Z,5.30
2022-12-08T07:51:02.516Z,5.15
2022-12-08T07:53:35.573Z,5.75
2022-12-08T07:56:09.389Z,6.60
2022-12-08T07:58:42.638Z,5.65
2022-12-08T08:01:22.475Z,4.55
2022-12-08T08:03:56.935Z,5.45
2022-12-08T08:06:30.024Z,5.55
2022-12-08T08:09:02.896Z,4.97
2022-12-08T08:11:35.708Z,4.85
2022-12-08T08:14:08.487Z,5.03
2022-12-08T08:16:46.718Z,4.65
2022-12-08T08:19:19.885Z,3.63
2022-12-08T08:21:52.632Z,4.28
2022-12-08T08:24:25.407Z,3.45
2022-12-08T08:26:58.250Z,4.05
2022-12-08T08:29:31.079Z,3.67
2022-12-08T08:32:05.300Z,4.25
2022-12-08T08:34:38.698Z,3.38
2022-12-08T08:37:11.582Z,3.17
2022-12-08T08:39:44.907Z,2.85
2022-12-08T08:42:17.739Z,2.97
2022-12-08T08:44:51.027Z,2.80
2022-12-08T08:47:25.241Z,2.72
2022-12-08T08:49:58.016Z,2.50
2022-12-08T08:52:31.072Z,2.08
2022-12-08T08:55:03.941Z,2.85
2022-12-08T08:57:36.761Z,2.00
2022-12-08T09:00:10.920Z,3.33
2022-12-08T09:02:45.082Z,2.67
2022-12-08T09:05:17.887Z,2.17
2022-12-08T09:07:51.105Z,2.40
2022-12-08T09:10:24.355Z,2.25
2022-12-08T09:12:57.324Z,2.78
2022-12-08T09:15:30.097Z,2.70
2022-12-08T09:18:06.587Z,2.45
2022-12-08T09:20:39.814Z,2.20
2022-12-08T09:23:12.559Z,2.20
2022-12-08T09:25:45.665Z,2.53
2022-12-08T09:28:18.526Z,2.50
2022-12-08T09:30:52.550Z,2.97
2022-12-08T09:33:27.080Z,2.40
2022-12-08T09:36:03.740Z,3.20
2022-12-08T09:38:36.936Z,2.90
2022-12-08T09:41:17.692Z,3.15
2022-12-08T09:44:08.284Z,2.78
2022-12-08T09:46:41.861Z,2.75
2022-12-08T09:49:19.573Z,2.90
2022-12-08T09:51:52.369Z,3.13
2022-12-08T09:54:30.894Z,3.25
2022-12-08T09:57:09.267Z,2.95
2022-12-08T09:59:48.742Z,3.50
2022-12-08T10:02:24.585Z,3.75
2022-12-08T10:05:00.344Z,4.72
2022-12-08T10:07:40.109Z,3.63
2022-12-08T10:10:27.231Z,3.90
2022-12-08T10:13:09.300Z,12.65
2022-12-08T10:15:46.919Z,3.80
2022-12-08T10:18:22.945Z,4.57
2022-12-08T10:21:02.872Z,3.35
2022-12-08T10:23:37.793Z,4.60
2022-12-08T10:28:46.111Z,6.00
2022-12-08T10:31:20.990Z,4.10
2022-12-08T10:33:58.517Z,4.63
2022-12-08T10:36:50.372Z,5.05
2022-12-08T10:39:35.479Z,5.30
2022-12-08T10:42:18.197Z,5.95
2022-12-08T10:44:58.742Z,6.00
2022-12-08T10:47:36.988Z,6.20
2022-12-08T10:50:22.246Z,5.30
2022-12-08T10:55:40.119Z,5.57
2022-12-08T10:58:31.632Z,6.00
2022-12-08T11:01:10.840Z,4.28
2022-12-08T11:03:48.526Z,5.75
2022-12-08T11:06:23.799Z,4.72
2022-12-08T11:09:01.586Z,4.45
2022-12-08T11:11:46.003Z,4.70
2022-12-08T11:14:23.432Z,4.95
2022-12-08T11:17:03.737Z,4.93
2022-12-08T11:19:38.866Z,4.53
2022-12-08T11:22:23.325Z,6.10
2022-12-08T11:25:11.805Z,4.90
2022-12-08T11:27:49.584Z,4.85
2022-12-08T11:30:24.315Z,5.45
2022-12-08T11:33:14.585Z,6.28
2022-12-08T11:35:53.866Z,7.20
2022-12-08T11:38:28.247Z,6.72
2022-12-08T11:41:10.819Z,6.53
2022-12-08T11:43:52.615Z,6.93
2022-12-08T11:46:29.616Z,6.68
2022-12-08T11:49:06.976Z,8.23
2022-12-08T11:51:45.207Z,7.38
2022-12-08T11:54:24.084Z,8.77
2022-12-08T11:57:00.265Z,5.90
2022-12-08T11:59:38.245Z,7.78
2022-12-08T12:02:17.017Z,4.65
2022-12-08T12:04:54.034Z,7.78
2022-12-08T12:07:38.243Z,7.05
2022-12-08T12:10:33.372Z,8.50
2022-12-08T12:13:42.592Z,7.60
2022-12-08T12:16:32.853Z,6.85
2022-12-08T12:19:11.898Z,8.20
2022-12-08T12:21:47.847Z,8.27
2022-12-08T12:24:26.784Z,7.13
2022-12-08T12:27:06.557Z,6.55
2022-12-08T12:29:52.212Z,7.13
2022-12-08T12:32:43.980Z,4.72
2022-12-08T12:35:27.004Z,5.72
2022-12-08T12:38:03.957Z,5.57
2022-12-08T12:40:44.387Z,5.45
2022-12-08T12:43:29.248Z,5.05
2022-12-08T12:46:35.591Z,5.60
2022-12-08T12:52:01.108Z,5.68
2022-12-08T12:54:33.967Z,5.03
2022-12-08T12:57:22.401Z,4.97
2022-12-08T13:00:08.992Z,5.63
2022-12-08T13:02:48.767Z,5.78
2022-12-08T13:05:25.924Z,5.53
2022-12-08T13:08:03.099Z,5.55
2022-12-08T13:10:39.074Z,6.63
2022-12-08T13:13:19.444Z,5.72
2022-12-08T13:15:54.885Z,6.22
2022-12-08T13:18:30.666Z,6.57
2022-12-08T13:21:14.857Z,8.40
2022-12-08T13:23:51.666Z,7.13
2022-12-08T13:26:26.065Z,6.38
2022-12-08T13:29:23.764Z,5.97
2022-12-08T13:31:57.060Z,6.07
2022-12-08T13:34:37.950Z,6.80
2022-12-08T13:37:25.560Z,3.90
2022-12-08T13:40:04.889Z,6.43
2022-12-08T13:42:45.228Z,6.60
2022-12-08T13:45:43.581Z,8.20
2022-12-08T13:48:35.239Z,6.13
2022-12-08T13:57:25.647Z,7.13
2022-12-08T14:00:01.651Z,6.63
2022-12-08T14:02:42.231Z,8.15
2022-12-08T14:05:40.667Z,7.22
2022-12-08T14:08:51.005Z,8.18
2022-12-08T14:11:34.396Z,8.55
2022-12-08T14:14:14.423Z,8.57
2022-12-08T14:16:56.322Z,10.32
2022-12-08T14:19:31.180Z,9.00
2022-12-08T14:22:11.380Z,8.68
2022-12-08T14:24:46.768Z,8.25
2022-12-08T14:27:23.638Z,5.80
2022-12-08T14:30:01.015Z,7.45
2022-12-08T14:32:36.045Z,9.60
2022-12-08T14:35:23.053Z,10.82
2022-12-08T14:37:58.471Z,5.72
2022-12-08T14:40:34.660Z,4.05
2022-12-08T14:43:17.541Z,7.32
2022-12-08T14:45:55.245Z,5.35
2022-12-08T14:48:40.709Z,6.30
2022-12-08T14:53:58.349Z,5.88
2022-12-08T14:56:37.682Z,5.93
2022-12-08T14:59:15.829Z,5.80
2022-12-08T15:01:53.659Z,4.90
2022-12-08T15:04:29.465Z,5.40
2022-12-08T15:07:07.706Z,4.50
2022-12-08T15:09:42.163Z,6.57
2022-12-08T15:12:26.773Z,6.22
2022-12-08T15:15:03.008Z,7.13
2022-12-08T15:17:44.226Z,7.25
2022-12-08T15:20:34.782Z,7.82
2022-12-08T15:23:29.194Z,7.35
2022-12-08T15:26:02.020Z,8.57
2022-12-08T15:28:34.877Z,7.43
2022-12-08T15:31:07.793Z,8.02
2022-12-08T15:33:41.994Z,6.50
2022-12-08T15:36:14.816Z,5.57
2022-12-08T15:38:47.629Z,6.80
2022-12-08T15:41:20.398Z,7.70
2022-12-08T15:43:53.528Z,8.00
2022-12-08T15:46:26.389Z,8.55
2022-12-08T15:49:00.597Z,7.65
2022-12-08T15:51:36.392Z,9.65
2022-12-08T15:54:09.380Z,8.25
2022-12-08T15:57:17.258Z,8.57
2022-12-08T15:59:38.877Z,10.50
2022-12-08T16:02:17.909Z,10.20
2022-12-08T16:07:52.886Z,10.25
2022-12-08T16:10:45.485Z,9.35
2022-12-08T16:13:56.598Z,10.63
2022-12-08T16:16:31.282Z,10.75
2022-12-08T16:19:04.489Z,8.10
2022-12-08T16:22:23.805Z,9.95
2022-12-08T16:24:31.421Z,8.13
2022-12-08T16:29:59.407Z,9.10
2022-12-08T16:35:05.684Z,10.25
2022-12-08T16:37:40.760Z,11.35
2022-12-08T16:40:14.198Z,10.32
2022-12-08T16:42:48.334Z,10.70
2022-12-08T16:45:23.548Z,10.80
2022-12-08T16:47:58.313Z,9.68
2022-12-08T16:50:33.370Z,11.20
2022-12-08T16:53:09.073Z,13.27
2022-12-08T16:55:47.084Z,11.52
2022-12-08T16:58:21.258Z,12.30
2022-12-08T17:00:54.174Z,9.43
2022-12-08T17:03:27.097Z,10.85
2022-12-08T17:05:59.955Z,11.90
2022-12-08T17:08:34.465Z,11.48
2022-12-08T17:11:08.450Z,13.80
2022-12-08T17:13:43.065Z,11.43
2022-12-08T17:16:19.072Z,12.25
2022-12-08T17:18:53.411Z,14.05
2022-12-08T17:21:26.213Z,11.75
2022-12-08T17:24:00.406Z,14.30
2022-12-08T17:26:33.452Z,15.25
2022-12-08T17:29:06.256Z,14.85
2022-12-08T17:31:39.141Z,15.40
2022-12-08T17:34:12.460Z,16.05
2022-12-08T17:36:45.236Z,17.38
2022-12-08T17:39:19.887Z,17.52
2022-12-08T17:41:52.859Z,15.10
2022-12-08T17:44:25.692Z,16.45
2022-12-08T17:46:58.507Z,17.85
2022-12-08T17:49:32.801Z,17.50
2022-12-08T17:52:07.744Z,19.25
2022-12-08T17:57:14.602Z,16.75
2022-12-08T17:59:47.652Z,16.30
2022-12-08T18:02:20.856Z,18.63
2022-12-08T18:04:53.662Z,18.90
2022-12-08T18:07:26.585Z,19.45
2022-12-08T18:10:00.724Z,17.80
2022-12-08T18:12:33.571Z,17.07
2022-12-08T18:15:08.414Z,16.95
2022-12-08T18:17:41.283Z,16.75
2022-12-08T18:20:15.337Z,18.42
2022-12-08T18:22:48.480Z,18.27
2022-12-08T18:25:22.789Z,20.25
2022-12-08T18:27:55.625Z,20.20
2022-12-08T18:30:28.605Z,18.83
2022-12-08T18:33:04.564Z,19.88
2022-12-08T18:35:39.728Z,16.52
2022-12-08T18:38:12.793Z,17.98
2022-12-08T18:40:46.954Z,18.90
2022-12-08T18:43:19.906Z,19.43
2022-12-08T18:46:02.429Z,17.35
2022-12-08T18:48:35.280Z,18.80
2022-12-08T18:51:10.534Z,18.77
2022-12-08T18:53:44.628Z,17.83
2022-12-08T18:56:25.113Z,18.97
2022-12-08T18:59:03.345Z,18.23
2022-12-08T19:01:39.510Z,16.48
2022-12-08T19:04:27.755Z,17.85
2022-12-08T19:07:01.266Z,19.10
2022-12-08T19:09:34.353Z,21.52
2022-12-08T19:12:08.809Z,16.75
2022-12-08T19:14:42.446Z,21.95
2022-12-08T19:17:15.230Z,17.95
2022-12-08T19:19:48.173Z,18.55
2022-12-08T19:22:20.978Z,20.48
2022-12-08T19:24:55.874Z,20.23
2022-12-08T19:27:29.999Z,18.20
2022-12-08T19:30:02.904Z,18.70
2022-12-08T19:32:36.067Z,21.67
2022-12-08T19:35:09.437Z,16.33
2022-12-08T19:37:42.319Z,19.50
2022-12-08T19:40:35.631Z,20.52
2022-12-08T19:43:34.150Z,19.17
2022-12-08T19:46:07.418Z,18.25
2022-12-08T19:48:40.736Z,18.83
2022-12-08T19:51:13.719Z,18.85
2022-12-08T19:53:47.935Z,17.80
2022-12-08T19:56:20.958Z,15.60
2022-12-08T19:58:55.374Z,20.17
2022-12-08T20:01:28.549Z,17.92
2022-12-08T20:04:01.398Z,18.48
2022-12-08T20:06:36.609Z,17.92
2022-12-08T20:09:10.252Z,19.38
2022-12-08T20:11:43.314Z,20.90
2022-12-08T20:14:18.120Z,28.92
2022-12-08T20:16:51.174Z,45.78
2022-12-08T20:19:24.078Z,32.15
2022-12-08T20:21:57.516Z,21.20
2022-12-08T20:24:31.395Z,21.52
2022-12-08T20:27:04.448Z,19.30
2022-12-08T20:29:38.735Z,20.38
2022-12-08T20:32:11.788Z,18.38
2022-12-08T20:34:44.675Z,20.02
2022-12-08T20:37:17.494Z,18.55
2022-12-08T20:39:52.241Z,16.70
2022-12-08T20:42:25.077Z,15.05
2022-12-08T20:45:00.187Z,16.20
2022-12-08T20:47:33.031Z,17.25
2022-12-08T20:50:08.819Z,17.05
2022-12-08T20:52:42.131Z,19.98
2022-12-08T20:55:14.910Z,15.57
2022-12-08T20:57:48.015Z,18.77
2022-12-08T21:00:25.811Z,18.27
2022-12-08T21:02:58.712Z,15.10
2022-12-08T21:05:32.017Z,17.80
2022-12-08T21:08:05.183Z,14.63
2022-12-08T21:10:43.681Z,17.35
2022-12-08T21:13:17.031Z,20.67
2022-12-08T21:15:51.441Z,17.42
2022-12-08T21:18:25.127Z,17.30
2022-12-08T21:21:03.251Z,15.73
2022-12-08T21:23:36.297Z,17.88
2022-12-08T21:26:13.126Z,18.27
2022-12-08T21:28:46.324Z,12.27
2022-12-08T21:31:21.593Z,17.67
2022-12-08T21:33:55.120Z,17.77
2022-12-08T21:36:28.121Z,21.17
2022-12-08T21:39:02.784Z,19.63
2022-12-08T21:41:53.230Z,21.05
2022-12-08T21:44:26.163Z,22.40
2022-12-08T21:47:00.486Z,19.58
2022-12-08T21:49:34.010Z,20.75
2022-12-08T21:52:06.983Z,20.30
2022-12-08T21:54:39.921Z,22.50
2022-12-08T21:57:14.070Z,20.48
2022-12-08T21:59:46.883Z,20.33
2022-12-08T22:02:22.822Z,17.35
2022-12-08T22:04:56.154Z,19.42
2022-12-08T22:07:29.314Z,19.85
2022-12-08T22:10:02.391Z,20.90
2022-12-08T22:12:36.814Z,18.90
2022-12-08T22:15:11.567Z,18.92
2022-12-08T22:17:45.772Z,20.17
2022-12-08T22:20:19.102Z,19.60
2022-12-08T22:22:52.032Z,20.75
2022-12-08T22:25:24.909Z,20.08
2022-12-08T22:27:58.223Z,19.33
2022-12-08T22:30:35.594Z,21.17
2022-12-08T22:33:12.922Z,20.48
2022-12-08T22:35:45.952Z,20.75
2022-12-08T22:38:18.700Z,19.55
2022-12-08T22:40:51.912Z,19.23
2022-12-08T22:43:24.801Z,20.67
2022-12-08T22:45:57.966Z,20.50
2022-12-08T22:48:32.348Z,20.45
2022-12-08T22:51:05.254Z,20.80
2022-12-08T22:53:38.689Z,21.38
2022-12-08T22:56:13.345Z,19.02
2022-12-08T22:58:46.575Z,18.55
2022-12-08T23:01:24.876Z,19.73
2022-12-08T23:04:00.396Z,21.02
2022-12-08T23:06:33.467Z,21.38
2022-12-08T23:09:07.717Z,21.98
2022-12-08T23:11:40.679Z,20.02
2022-12-08T23:14:13.570Z,20.23
2022-12-08T23:16:46.824Z,21.20
2022-12-08T23:19:21.493Z,20.23
2022-12-08T23:21:54.529Z,22.35
2022-12-08T23:24:27.665Z,17.58
2022-12-08T23:27:01.683Z,19.97
2022-12-08T23:29:34.742Z,19.60
2022-12-08T23:32:07.940Z,18.80
2022-12-08T23:34:42.289Z,19.83
2022-12-08T23:37:15.411Z,21.08
2022-12-08T23:39:48.476Z,21.17
2022-12-08T23:42:21.706Z,21.67
2022-12-08T23:44:54.737Z,20.48
2022-12-08T23:47:27.614Z,20.15
2022-12-08T23:50:02.099Z,20.60
2022-12-08T23:52:35.196Z,18.60
2022-12-08T23:55:09.100Z,19.73
2022-12-08T23:57:41.968Z,20.25
